createdAt,value
2017-07-28T00:00:39.118Z,25.07
2017-07-28T00:02:47.104Z,25.07
2017-07-28T00:04:55.286Z,25.07
2017-07-28T00:07:04.822Z,25.07
2017-07-28T00:09:15.789Z,25.07
2017-07-28T00:11:22.562Z,25.07
2017-07-28T00:30:48.588Z,25.05
2017-07-28T00:32:59.737Z,25.05
2017-07-28T00:52:21.503Z,25.03
2017-07-28T00:54:31.333Z,25.03
2017-07-28T00:56:39.229Z,25.04
2017-07-28T00:58:49.426Z,25.03
2017-07-28T01:00:58.302Z,25.04
2017-07-28T01:03:09.677Z,25.03
2017-07-28T01:22:33.141Z,25.01
2017-07-28T01:24:40.741Z,25.02
2017-07-28T01:26:50.093Z,25.02
2017-07-28T01:29:00.013Z,25.02
2017-07-28T01:31:07.810Z,25.01
2017-07-28T01:50:31.272Z,25.00
2017-07-28T01:52:42.788Z,24.99
2017-07-28T01:54:48.706Z,24.98
2017-07-28T01:56:57.422Z,24.99
2017-07-28T01:59:07.731Z,24.98
2017-07-28T02:01:18.679Z,24.99
2017-07-28T02:03:27.568Z,24.98
2017-07-28T02:05:38.333Z,24.98
2017-07-28T02:07:48.278Z,24.99
2017-07-28T02:09:57.577Z,24.99
2017-07-28T02:12:09.192Z,24.98
2017-07-28T02:14:18.214Z,24.99
2017-07-28T02:16:24.984Z,24.98
2017-07-28T02:18:35.474Z,24.98
2017-07-28T02:20:46.210Z,24.97
2017-07-28T02:22:54.107Z,24.97
2017-07-28T02:25:03.845Z,24.97
2017-07-28T02:27:12.372Z,24.98
2017-07-28T02:29:19.344Z,24.96
2017-07-28T02:31:27.320Z,24.96
2017-07-28T02:33:36.295Z,24.96
2017-07-28T02:35:45.489Z,24.96
2017-07-28T02:37:55.122Z,24.96
2017-07-28T02:40:02.100Z,24.96
2017-07-28T02:42:12.190Z,24.96
2017-07-28T02:44:24.164Z,24.96
2017-07-28T02:46:31.324Z,24.95
2017-07-28T02:48:38.706Z,24.96
2017-07-28T02:50:49.094Z,24.95
2017-07-28T02:52:56.346Z,24.96
2017-07-28T02:55:03.038Z,24.95
2017-07-28T02:57:13.013Z,24.95
2017-07-28T02:59:22.986Z,24.95
2017-07-28T03:01:33.960Z,24.95
2017-07-28T03:03:42.935Z,24.94
2017-07-28T03:05:52.910Z,24.94
2017-07-28T03:08:03.882Z,24.94
2017-07-28T03:10:11.856Z,24.94
2017-07-28T03:12:21.039Z,24.94
2017-07-28T03:14:27.501Z,24.94
2017-07-28T03:16:37.651Z,24.94
2017-07-28T03:18:47.699Z,24.93
2017-07-28T03:20:53.962Z,24.94
2017-07-28T03:23:06.159Z,24.93
2017-07-28T03:25:15.674Z,24.93
2017-07-28T03:27:25.435Z,24.93
2017-07-28T03:29:33.944Z,24.93
2017-07-28T03:31:43.602Z,24.92
2017-07-28T03:33:52.301Z,24.92
2017-07-28T03:36:00.298Z,24.92
2017-07-28T03:38:09.222Z,24.92
2017-07-28T03:40:18.040Z,24.93
2017-07-28T03:42:29.008Z,24.92
2017-07-28T03:44:36.450Z,24.92
2017-07-28T03:46:48.420Z,24.93
2017-07-28T03:48:57.392Z,24.91
2017-07-28T03:51:07.051Z,24.92
2017-07-28T03:53:18.940Z,24.92
2017-07-28T03:55:31.314Z,24.91
2017-07-28T03:57:41.697Z,24.92
2017-07-28T03:59:51.236Z,24.92
2017-07-28T04:02:03.236Z,24.92
2017-07-28T04:04:12.661Z,24.93
2017-07-28T04:06:20.899Z,24.93
2017-07-28T04:08:28.160Z,24.92
2017-07-28T04:10:35.023Z,24.92
2017-07-28T04:12:45.108Z,24.92
2017-07-28T04:14:57.082Z,24.92
2017-07-28T04:17:06.908Z,24.92
2017-07-28T04:19:17.030Z,24.92
2017-07-28T04:21:28.004Z,24.93
2017-07-28T04:23:38.790Z,24.93
2017-07-28T04:25:48.532Z,24.93
2017-07-28T04:27:57.940Z,24.94
2017-07-28T04:30:09.900Z,24.93
2017-07-28T04:32:17.874Z,24.94
2017-07-28T04:34:27.849Z,24.94
2017-07-28T04:36:39.385Z,24.94
2017-07-28T04:38:47.588Z,24.95
2017-07-28T04:40:59.770Z,24.95
2017-07-28T04:43:08.756Z,24.96
2017-07-28T04:45:17.632Z,24.95
2017-07-28T04:47:27.274Z,24.97
2017-07-28T04:49:34.668Z,24.98
2017-07-28T04:51:44.646Z,24.97
2017-07-28T04:53:56.386Z,24.98
2017-07-28T04:56:03.644Z,24.97
2017-07-28T04:58:11.464Z,24.98
2017-07-28T05:17:37.336Z,25.02
2017-07-28T05:19:47.356Z,25.03
2017-07-28T05:39:14.184Z,25.57
2017-07-28T05:41:27.508Z,25.63
2017-07-28T06:00:55.275Z,25.64
2017-07-28T06:20:15.156Z,25.70
2017-07-28T06:22:26.023Z,25.73
2017-07-28T06:24:31.539Z,25.73
2017-07-28T06:26:42.554Z,25.69
2017-07-28T06:28:56.550Z,25.69
